sensor_id;sensor_type;location;lat;lon;timestamp;pressure;altitude;pressure_sealevel;temperature
18219;BMP180;9234;49.344;11.120;2023-04-29T00:01:59;97091.00;;;12.70
18219;BMP180;9234;49.344;11.120;2023-04-29T00:04:27;97092.00;;;12.70
18219;BMP180;9234;49.344;11.120;2023-04-29T00:06:56;97108.00;;;12.80
18219;BMP180;9234;49.344;11.120;2023-04-29T00:09:25;97098.00;;;12.80
18219;BMP180;9234;49.344;11.120;2023-04-29T00:11:53;97094.00;;;12.80
18219;BMP180;9234;49.344;11.120;2023-04-29T00:14:22;97097.00;;;12.80
18219;BMP180;9234;49.344;11.120;2023-04-29T00:16:50;97093.00;;;12.80
18219;BMP180;9234;49.344;11.120;2023-04-29T00:19:20;97091.00;;;12.80
18219;BMP180;9234;49.344;11.120;2023-04-29T00:21:48;97095.00;;;12.90
18219;BMP180;9234;49.344;11.120;2023-04-29T00:24:16;97093.00;;;12.90
18219;BMP180;9234;49.344;11.120;2023-04-29T00:26:46;97098.00;;;12.90
18219;BMP180;9234;49.344;11.120;2023-04-29T00:29:14;97100.00;;;12.90
18219;BMP180;9234;49.344;11.120;2023-04-29T00:31:42;97107.00;;;12.90
18219;BMP180;9234;49.344;11.120;2023-04-29T00:34:10;97096.00;;;12.90
18219;BMP180;9234;49.344;11.120;2023-04-29T00:36:39;97092.00;;;13.00
18219;BMP180;9234;49.344;11.120;2023-04-29T00:39:07;97089.00;;;13.00
18219;BMP180;9234;49.344;11.120;2023-04-29T00:41:36;97095.00;;;13.00
18219;BMP180;9234;49.344;11.120;2023-04-29T00:44:06;97096.00;;;13.00
18219;BMP180;9234;49.344;11.120;2023-04-29T00:46:34;97096.00;;;13.00
18219;BMP180;9234;49.344;11.120;2023-04-29T00:49:03;97095.00;;;13.00
18219;BMP180;9234;49.344;11.120;2023-04-29T00:51:31;97093.00;;;13.00
18219;BMP180;9234;49.344;11.120;2023-04-29T00:54:00;97096.00;;;13.00
18219;BMP180;9234;49.344;11.120;2023-04-29T00:56:33;97095.00;;;13.00
18219;BMP180;9234;49.344;11.120;2023-04-29T00:59:02;97100.00;;;13.00
18219;BMP180;9234;49.344;11.120;2023-04-29T01:01:33;97095.00;;;13.00
18219;BMP180;9234;49.344;11.120;2023-04-29T01:04:04;97119.00;;;13.00
18219;BMP180;9234;49.344;11.120;2023-04-29T01:06:48;97117.00;;;13.00
18219;BMP180;9234;49.344;11.120;2023-04-29T01:09:44;97104.00;;;13.00
18219;BMP180;9234;49.344;11.120;2023-04-29T01:12:23;97106.00;;;13.00
18219;BMP180;9234;49.344;11.120;2023-04-29T01:15:04;97108.00;;;13.00
18219;BMP180;9234;49.344;11.120;2023-04-29T01:17:42;97099.00;;;13.00
18219;BMP180;9234;49.344;11.120;2023-04-29T01:20:12;97097.00;;;13.00
18219;BMP180;9234;49.344;11.120;2023-04-29T01:22:41;97094.00;;;12.90
18219;BMP180;9234;49.344;11.120;2023-04-29T01:25:11;97098.00;;;12.90
18219;BMP180;9234;49.344;11.120;2023-04-29T01:28:11;97093.00;;;12.80
18219;BMP180;9234;49.344;11.120;2023-04-29T01:30:47;97093.00;;;12.70
18219;BMP180;9234;49.344;11.120;2023-04-29T01:33:28;97094.00;;;12.60
18219;BMP180;9234;49.344;11.120;2023-04-29T01:36:12;97091.00;;;12.60
18219;BMP180;9234;49.344;11.120;2023-04-29T01:38:52;97093.00;;;12.50
18219;BMP180;9234;49.344;11.120;2023-04-29T01:41:35;97099.00;;;12.40
18219;BMP180;9234;49.344;11.120;2023-04-29T01:44:21;97088.00;;;12.30
18219;BMP180;9234;49.344;11.120;2023-04-29T01:46:52;97102.00;;;12.20
18219;BMP180;9234;49.344;11.120;2023-04-29T01:49:26;97098.00;;;12.10
18219;BMP180;9234;49.344;11.120;2023-04-29T01:51:55;97095.00;;;12.10
18219;BMP180;9234;49.344;11.120;2023-04-29T01:54:24;97100.00;;;12.00
18219;BMP180;9234;49.344;11.120;2023-04-29T01:56:55;97089.00;;;11.90
18219;BMP180;9234;49.344;11.120;2023-04-29T01:59:41;97099.00;;;11.90
18219;BMP180;9234;49.344;11.120;2023-04-29T02:02:32;97097.00;;;11.80
18219;BMP180;9234;49.344;11.120;2023-04-29T02:05:10;97107.00;;;11.70
18219;BMP180;9234;49.344;11.120;2023-04-29T02:07:43;97100.00;;;11.70
18219;BMP180;9234;49.344;11.120;2023-04-29T02:10:11;97100.00;;;11.60
18219;BMP180;9234;49.344;11.120;2023-04-29T02:12:43;97099.00;;;11.60
18219;BMP180;9234;49.344;11.120;2023-04-29T02:15:12;97111.00;;;11.60
18219;BMP180;9234;49.344;11.120;2023-04-29T02:17:41;97096.00;;;11.60
18219;BMP180;9234;49.344;11.120;2023-04-29T02:20:10;97100.00;;;11.60
18219;BMP180;9234;49.344;11.120;2023-04-29T02:22:38;97100.00;;;11.60
18219;BMP180;9234;49.344;11.120;2023-04-29T02:25:07;97105.00;;;11.60
18219;BMP180;9234;49.344;11.120;2023-04-29T02:27:36;97098.00;;;11.60
18219;BMP180;9234;49.344;11.120;2023-04-29T02:30:08;97099.00;;;11.60
18219;BMP180;9234;49.344;11.120;2023-04-29T02:32:36;97103.00;;;11.50
18219;BMP180;9234;49.344;11.120;2023-04-29T02:35:06;97103.00;;;11.50
18219;BMP180;9234;49.344;11.120;2023-04-29T02:37:34;97118.00;;;11.40
18219;BMP180;9234;49.344;11.120;2023-04-29T02:40:04;97108.00;;;11.40
18219;BMP180;9234;49.344;11.120;2023-04-29T02:42:32;97112.00;;;11.40
18219;BMP180;9234;49.344;11.120;2023-04-29T02:45:00;97102.00;;;11.40
18219;BMP180;9234;49.344;11.120;2023-04-29T02:47:31;97099.00;;;11.30
18219;BMP180;9234;49.344;11.120;2023-04-29T02:49:59;97100.00;;;11.40
18219;BMP180;9234;49.344;11.120;2023-04-29T02:52:28;97102.00;;;11.40
18219;BMP180;9234;49.344;11.120;2023-04-29T02:54:56;97106.00;;;11.40
18219;BMP180;9234;49.344;11.120;2023-04-29T02:57:24;97091.00;;;11.40
18219;BMP180;9234;49.344;11.120;2023-04-29T02:59:52;97099.00;;;11.40
18219;BMP180;9234;49.344;11.120;2023-04-29T03:02:21;97107.00;;;11.40
18219;BMP180;9234;49.344;11.120;2023-04-29T03:04:54;97107.00;;;11.30
18219;BMP180;9234;49.344;11.120;2023-04-29T03:07:22;97111.00;;;11.30
18219;BMP180;9234;49.344;11.120;2023-04-29T03:09:51;97118.00;;;11.30
18219;BMP180;9234;49.344;11.120;2023-04-29T03:12:20;97098.00;;;11.20
18219;BMP180;9234;49.344;11.120;2023-04-29T03:14:49;97103.00;;;11.20
18219;BMP180;9234;49.344;11.120;2023-04-29T03:17:17;97118.00;;;11.20
18219;BMP180;9234;49.344;11.120;2023-04-29T03:19:46;97104.00;;;11.20
18219;BMP180;9234;49.344;11.120;2023-04-29T03:22:15;97103.00;;;11.10
18219;BMP180;9234;49.344;11.120;2023-04-29T03:24:43;97106.00;;;11.10
18219;BMP180;9234;49.344;11.120;2023-04-29T03:27:12;97117.00;;;11.10
18219;BMP180;9234;49.344;11.120;2023-04-29T03:29:40;97106.00;;;11.00
18219;BMP180;9234;49.344;11.120;2023-04-29T03:32:09;97092.00;;;10.90
18219;BMP180;9234;49.344;11.120;2023-04-29T03:34:37;97093.00;;;10.90
18219;BMP180;9234;49.344;11.120;2023-04-29T03:37:27;97108.00;;;10.80
18219;BMP180;9234;49.344;11.120;2023-04-29T03:40:09;97104.00;;;10.80
18219;BMP180;9234;49.344;11.120;2023-04-29T03:42:39;97107.00;;;10.80
18219;BMP180;9234;49.344;11.120;2023-04-29T03:45:09;97108.00;;;10.90
18219;BMP180;9234;49.344;11.120;2023-04-29T03:47:42;97100.00;;;10.90
18219;BMP180;9234;49.344;11.120;2023-04-29T03:50:10;97102.00;;;11.00
18219;BMP180;9234;49.344;11.120;2023-04-29T03:52:41;97094.00;;;11.00
18219;BMP180;9234;49.344;11.120;2023-04-29T03:55:13;97112.00;;;11.10
18219;BMP180;9234;49.344;11.120;2023-04-29T03:57:42;97115.00;;;11.10
18219;BMP180;9234;49.344;11.120;2023-04-29T04:00:13;97121.00;;;11.10
18219;BMP180;9234;49.344;11.120;2023-04-29T04:02:49;97112.00;;;11.10
18219;BMP180;9234;49.344;11.120;2023-04-29T04:05:18;97110.00;;;11.10
18219;BMP180;9234;49.344;11.120;2023-04-29T04:07:53;97116.00;;;11.10
18219;BMP180;9234;49.344;11.120;2023-04-29T04:10:33;97117.00;;;11.20
18219;BMP180;9234;49.344;11.120;2023-04-29T04:13:07;97122.00;;;11.20
18219;BMP180;9234;49.344;11.120;2023-04-29T04:15:35;97133.00;;;11.20
18219;BMP180;9234;49.344;11.120;2023-04-29T04:18:03;97113.00;;;11.20
18219;BMP180;9234;49.344;11.120;2023-04-29T04:20:32;97125.00;;;11.30
18219;BMP180;9234;49.344;11.120;2023-04-29T04:23:01;97126.00;;;11.30
18219;BMP180;9234;49.344;11.120;2023-04-29T04:25:30;97136.00;;;11.40
18219;BMP180;9234;49.344;11.120;2023-04-29T04:28:11;97135.00;;;11.40
18219;BMP180;9234;49.344;11.120;2023-04-29T04:30:53;97151.00;;;11.40
18219;BMP180;9234;49.344;11.120;2023-04-29T04:33:21;97144.00;;;11.50
18219;BMP180;9234;49.344;11.120;2023-04-29T04:35:49;97148.00;;;11.50
18219;BMP180;9234;49.344;11.120;2023-04-29T04:38:19;97145.00;;;11.60
18219;BMP180;9234;49.344;11.120;2023-04-29T04:40:47;97156.00;;;11.60
18219;BMP180;9234;49.344;11.120;2023-04-29T04:43:28;97158.00;;;11.60
18219;BMP180;9234;49.344;11.120;2023-04-29T04:45:57;97152.00;;;11.70
18219;BMP180;9234;49.344;11.120;2023-04-29T04:48:25;97159.00;;;11.70
18219;BMP180;9234;49.344;11.120;2023-04-29T04:50:54;97157.00;;;11.80
18219;BMP180;9234;49.344;11.120;2023-04-29T04:53:24;97156.00;;;11.90
18219;BMP180;9234;49.344;11.120;2023-04-29T04:56:00;97156.00;;;11.90
18219;BMP180;9234;49.344;11.120;2023-04-29T04:58:30;97154.00;;;11.90
18219;BMP180;9234;49.344;11.120;2023-04-29T05:00:58;97161.00;;;12.00
18219;BMP180;9234;49.344;11.120;2023-04-29T05:03:27;97150.00;;;12.10
18219;BMP180;9234;49.344;11.120;2023-04-29T05:05:57;97155.00;;;12.10
18219;BMP180;9234;49.344;11.120;2023-04-29T05:08:28;97159.00;;;12.20
18219;BMP180;9234;49.344;11.120;2023-04-29T05:10:58;97167.00;;;12.20
18219;BMP180;9234;49.344;11.120;2023-04-29T05:13:26;97161.00;;;12.30
18219;BMP180;9234;49.344;11.120;2023-04-29T05:15:55;97167.00;;;12.30
18219;BMP180;9234;49.344;11.120;2023-04-29T05:18:27;97167.00;;;12.30
18219;BMP180;9234;49.344;11.120;2023-04-29T05:20:55;97166.00;;;12.40
18219;BMP180;9234;49.344;11.120;2023-04-29T05:23:24;97168.00;;;12.40
18219;BMP180;9234;49.344;11.120;2023-04-29T05:25:54;97165.00;;;12.50
18219;BMP180;9234;49.344;11.120;2023-04-29T05:28:22;97170.00;;;12.60
18219;BMP180;9234;49.344;11.120;2023-04-29T05:30:53;97181.00;;;12.70
18219;BMP180;9234;49.344;11.120;2023-04-29T05:33:22;97176.00;;;12.80
18219;BMP180;9234;49.344;11.120;2023-04-29T05:35:50;97181.00;;;13.00
18219;BMP180;9234;49.344;11.120;2023-04-29T05:38:18;97192.00;;;13.10
18219;BMP180;9234;49.344;11.120;2023-04-29T05:40:55;97189.00;;;13.20
18219;BMP180;9234;49.344;11.120;2023-04-29T05:43:41;97185.00;;;13.30
18219;BMP180;9234;49.344;11.120;2023-04-29T05:46:12;97186.00;;;13.40
18219;BMP180;9234;49.344;11.120;2023-04-29T05:48:40;97192.00;;;13.50
18219;BMP180;9234;49.344;11.120;2023-04-29T05:51:11;97202.00;;;13.60
18219;BMP180;9234;49.344;11.120;2023-04-29T05:53:40;97189.00;;;13.70
18219;BMP180;9234;49.344;11.120;2023-04-29T05:56:10;97201.00;;;13.90
18219;BMP180;9234;49.344;11.120;2023-04-29T05:58:39;97190.00;;;14.00
18219;BMP180;9234;49.344;11.120;2023-04-29T06:01:07;97197.00;;;14.10
18219;BMP180;9234;49.344;11.120;2023-04-29T06:03:35;97205.00;;;14.20
18219;BMP180;9234;49.344;11.120;2023-04-29T06:06:22;97207.00;;;14.40
18219;BMP180;9234;49.344;11.120;2023-04-29T06:09:10;97212.00;;;14.50
18219;BMP180;9234;49.344;11.120;2023-04-29T06:11:56;97216.00;;;14.60
18219;BMP180;9234;49.344;11.120;2023-04-29T06:14:24;97212.00;;;14.70
18219;BMP180;9234;49.344;11.120;2023-04-29T06:16:53;97218.00;;;14.80
18219;BMP180;9234;49.344;11.120;2023-04-29T06:19:23;97204.00;;;14.90
18219;BMP180;9234;49.344;11.120;2023-04-29T06:21:52;97205.00;;;15.00
18219;BMP180;9234;49.344;11.120;2023-04-29T06:24:20;97221.00;;;15.10
18219;BMP180;9234;49.344;11.120;2023-04-29T06:26:49;97225.00;;;15.20
18219;BMP180;9234;49.344;11.120;2023-04-29T06:29:26;97230.00;;;15.30
18219;BMP180;9234;49.344;11.120;2023-04-29T06:31:54;97242.00;;;15.40
18219;BMP180;9234;49.344;11.120;2023-04-29T06:34:23;97237.00;;;15.50
18219;BMP180;9234;49.344;11.120;2023-04-29T06:37:17;97239.00;;;15.50
18219;BMP180;9234;49.344;11.120;2023-04-29T06:40:07;97253.00;;;15.60
18219;BMP180;9234;49.344;11.120;2023-04-29T06:42:51;97240.00;;;15.60
18219;BMP180;9234;49.344;11.120;2023-04-29T06:45:46;97245.00;;;15.70
18219;BMP180;9234;49.344;11.120;2023-04-29T06:48:25;97242.00;;;15.80
18219;BMP180;9234;49.344;11.120;2023-04-29T06:50:55;97261.00;;;15.90
18219;BMP180;9234;49.344;11.120;2023-04-29T06:53:24;97256.00;;;15.90
18219;BMP180;9234;49.344;11.120;2023-04-29T06:55:52;97249.00;;;16.00
18219;BMP180;9234;49.344;11.120;2023-04-29T06:58:20;97244.00;;;16.20
18219;BMP180;9234;49.344;11.120;2023-04-29T07:00:50;97243.00;;;16.30
18219;BMP180;9234;49.344;11.120;2023-04-29T07:03:21;97243.00;;;16.40
18219;BMP180;9234;49.344;11.120;2023-04-29T07:05:49;97247.00;;;16.40
18219;BMP180;9234;49.344;11.120;2023-04-29T07:08:18;97245.00;;;16.50
18219;BMP180;9234;49.344;11.120;2023-04-29T07:10:53;97259.00;;;16.50
18219;BMP180;9234;49.344;11.120;2023-04-29T07:13:23;97264.00;;;16.60
18219;BMP180;9234;49.344;11.120;2023-04-29T07:15:52;97269.00;;;16.80
18219;BMP180;9234;49.344;11.120;2023-04-29T07:18:21;97261.00;;;17.00
18219;BMP180;9234;49.344;11.120;2023-04-29T07:20:49;97267.00;;;17.20
18219;BMP180;9234;49.344;11.120;2023-04-29T07:23:18;97262.00;;;17.30
18219;BMP180;9234;49.344;11.120;2023-04-29T07:25:47;97262.00;;;17.30
18219;BMP180;9234;49.344;11.120;2023-04-29T07:28:15;97280.00;;;17.10
18219;BMP180;9234;49.344;11.120;2023-04-29T07:30:43;97278.00;;;17.00
18219;BMP180;9234;49.344;11.120;2023-04-29T07:33:13;97272.00;;;16.90
18219;BMP180;9234;49.344;11.120;2023-04-29T07:35:42;97280.00;;;16.80
18219;BMP180;9234;49.344;11.120;2023-04-29T07:38:10;97283.00;;;16.70
18219;BMP180;9234;49.344;11.120;2023-04-29T07:40:41;97271.00;;;16.60
18219;BMP180;9234;49.344;11.120;2023-04-29T07:43:09;97271.00;;;16.60
18219;BMP180;9234;49.344;11.120;2023-04-29T07:45:38;97283.00;;;16.60
18219;BMP180;9234;49.344;11.120;2023-04-29T07:48:07;97284.00;;;16.60
18219;BMP180;9234;49.344;11.120;2023-04-29T07:50:37;97285.00;;;16.60
18219;BMP180;9234;49.344;11.120;2023-04-29T07:53:05;97293.00;;;16.60
18219;BMP180;9234;49.344;11.120;2023-04-29T07:55:36;97286.00;;;16.60
18219;BMP180;9234;49.344;11.120;2023-04-29T07:58:05;97288.00;;;16.70
18219;BMP180;9234;49.344;11.120;2023-04-29T08:00:33;97296.00;;;16.80
18219;BMP180;9234;49.344;11.120;2023-04-29T08:03:01;97300.00;;;17.00
18219;BMP180;9234;49.344;11.120;2023-04-29T08:05:29;97300.00;;;17.10
18219;BMP180;9234;49.344;11.120;2023-04-29T08:07:59;97299.00;;;17.20
18219;BMP180;9234;49.344;11.120;2023-04-29T08:10:28;97306.00;;;17.40
18219;BMP180;9234;49.344;11.120;2023-04-29T08:12:56;97305.00;;;17.50
18219;BMP180;9234;49.344;11.120;2023-04-29T08:15:25;97304.00;;;17.70
18219;BMP180;9234;49.344;11.120;2023-04-29T08:17:53;97304.00;;;17.90
18219;BMP180;9234;49.344;11.120;2023-04-29T08:20:22;97312.00;;;18.10
18219;BMP180;9234;49.344;11.120;2023-04-29T08:22:50;97308.00;;;18.10
18219;BMP180;9234;49.344;11.120;2023-04-29T08:25:20;97310.00;;;18.10
18219;BMP180;9234;49.344;11.120;2023-04-29T08:27:48;97319.00;;;18.00
18219;BMP180;9234;49.344;11.120;2023-04-29T08:30:17;97323.00;;;17.90
18219;BMP180;9234;49.344;11.120;2023-04-29T08:32:46;97322.00;;;17.80
18219;BMP180;9234;49.344;11.120;2023-04-29T08:35:14;97330.00;;;17.70
18219;BMP180;9234;49.344;11.120;2023-04-29T08:37:42;97338.00;;;17.50
18219;BMP180;9234;49.344;11.120;2023-04-29T08:40:12;97328.00;;;17.40
18219;BMP180;9234;49.344;11.120;2023-04-29T08:42:44;97343.00;;;17.40
18219;BMP180;9234;49.344;11.120;2023-04-29T08:45:18;97342.00;;;17.40
18219;BMP180;9234;49.344;11.120;2023-04-29T08:47:48;97343.00;;;17.40
18219;BMP180;9234;49.344;11.120;2023-04-29T08:50:17;97357.00;;;17.30
18219;BMP180;9234;49.344;11.120;2023-04-29T08:52:46;97345.00;;;17.20
18219;BMP180;9234;49.344;11.120;2023-04-29T08:55:14;97346.00;;;17.20
18219;BMP180;9234;49.344;11.120;2023-04-29T08:57:45;97353.00;;;17.10
18219;BMP180;9234;49.344;11.120;2023-04-29T09:00:16;97342.00;;;17.20
18219;BMP180;9234;49.344;11.120;2023-04-29T09:02:49;97349.00;;;17.30
18219;BMP180;9234;49.344;11.120;2023-04-29T09:05:18;97361.00;;;17.40
18219;BMP180;9234;49.344;11.120;2023-04-29T09:07:49;97351.00;;;17.50
18219;BMP180;9234;49.344;11.120;2023-04-29T09:10:18;97358.00;;;17.70
18219;BMP180;9234;49.344;11.120;2023-04-29T09:12:48;97357.00;;;17.90
18219;BMP180;9234;49.344;11.120;2023-04-29T09:15:17;97346.00;;;18.20
18219;BMP180;9234;49.344;11.120;2023-04-29T09:17:47;97354.00;;;18.40
18219;BMP180;9234;49.344;11.120;2023-04-29T09:20:28;97351.00;;;18.70
18219;BMP180;9234;49.344;11.120;2023-04-29T09:23:00;97351.00;;;18.90
18219;BMP180;9234;49.344;11.120;2023-04-29T09:25:29;97351.00;;;19.00
18219;BMP180;9234;49.344;11.120;2023-04-29T09:28:14;97356.00;;;19.00
18219;BMP180;9234;49.344;11.120;2023-04-29T09:30:46;97347.00;;;19.10
18219;BMP180;9234;49.344;11.120;2023-04-29T09:33:16;97348.00;;;18.90
18219;BMP180;9234;49.344;11.120;2023-04-29T09:35:44;97361.00;;;18.60
18219;BMP180;9234;49.344;11.120;2023-04-29T09:38:15;97368.00;;;18.30
18219;BMP180;9234;49.344;11.120;2023-04-29T09:40:44;97362.00;;;18.10
18219;BMP180;9234;49.344;11.120;2023-04-29T09:43:27;97367.00;;;17.90
18219;BMP180;9234;49.344;11.120;2023-04-29T09:45:55;97362.00;;;17.70
18219;BMP180;9234;49.344;11.120;2023-04-29T09:48:30;97365.00;;;17.80
18219;BMP180;9234;49.344;11.120;2023-04-29T09:51:01;97364.00;;;17.90
18219;BMP180;9234;49.344;11.120;2023-04-29T09:53:30;97361.00;;;18.00
18219;BMP180;9234;49.344;11.120;2023-04-29T09:56:00;97357.00;;;18.30
18219;BMP180;9234;49.344;11.120;2023-04-29T09:58:34;97367.00;;;18.50
18219;BMP180;9234;49.344;11.120;2023-04-29T10:01:04;97376.00;;;18.70
18219;BMP180;9234;49.344;11.120;2023-04-29T10:03:35;97373.00;;;19.00
18219;BMP180;9234;49.344;11.120;2023-04-29T10:06:06;97371.00;;;19.20
18219;BMP180;9234;49.344;11.120;2023-04-29T10:08:35;97382.00;;;19.40
18219;BMP180;9234;49.344;11.120;2023-04-29T10:11:04;97370.00;;;19.50
18219;BMP180;9234;49.344;11.120;2023-04-29T10:13:35;97377.00;;;19.60
18219;BMP180;9234;49.344;11.120;2023-04-29T10:16:22;97377.00;;;19.70
18219;BMP180;9234;49.344;11.120;2023-04-29T10:18:59;97372.00;;;19.90
18219;BMP180;9234;49.344;11.120;2023-04-29T10:21:30;97366.00;;;19.90
18219;BMP180;9234;49.344;11.120;2023-04-29T10:24:01;97373.00;;;19.90
18219;BMP180;9234;49.344;11.120;2023-04-29T10:26:31;97382.00;;;20.00
18219;BMP180;9234;49.344;11.120;2023-04-29T10:29:02;97366.00;;;20.10
18219;BMP180;9234;49.344;11.120;2023-04-29T10:31:33;97381.00;;;20.10
18219;BMP180;9234;49.344;11.120;2023-04-29T10:34:02;97382.00;;;20.00
18219;BMP180;9234;49.344;11.120;2023-04-29T10:36:32;97395.00;;;19.90
18219;BMP180;9234;49.344;11.120;2023-04-29T10:39:03;97386.00;;;19.70
18219;BMP180;9234;49.344;11.120;2023-04-29T10:41:41;97384.00;;;19.50
18219;BMP180;9234;49.344;11.120;2023-04-29T10:44:15;97379.00;;;19.30
18219;BMP180;9234;49.344;11.120;2023-04-29T10:46:43;97379.00;;;19.30
18219;BMP180;9234;49.344;11.120;2023-04-29T10:49:11;97380.00;;;19.10
18219;BMP180;9234;49.344;11.120;2023-04-29T10:51:41;97386.00;;;19.00
18219;BMP180;9234;49.344;11.120;2023-04-29T10:54:13;97384.00;;;18.80
18219;BMP180;9234;49.344;11.120;2023-04-29T10:56:46;97392.00;;;18.70
18219;BMP180;9234;49.344;11.120;2023-04-29T10:59:20;97396.00;;;18.70
18219;BMP180;9234;49.344;11.120;2023-04-29T11:01:50;97395.00;;;18.80
18219;BMP180;9234;49.344;11.120;2023-04-29T11:04:20;97398.00;;;19.00
18219;BMP180;9234;49.344;11.120;2023-04-29T11:06:52;97395.00;;;19.20
18219;BMP180;9234;49.344;11.120;2023-04-29T11:09:25;97390.00;;;19.30
18219;BMP180;9234;49.344;11.120;2023-04-29T11:12:01;97387.00;;;19.40
18219;BMP180;9234;49.344;11.120;2023-04-29T11:14:35;97390.00;;;19.60
18219;BMP180;9234;49.344;11.120;2023-04-29T11:17:08;97386.00;;;19.60
18219;BMP180;9234;49.344;11.120;2023-04-29T11:19:41;97396.00;;;19.70
18219;BMP180;9234;49.344;11.120;2023-04-29T11:22:14;97403.00;;;19.70
18219;BMP180;9234;49.344;11.120;2023-04-29T11:24:54;97391.00;;;19.70
18219;BMP180;9234;49.344;11.120;2023-04-29T11:27:25;97395.00;;;19.50
18219;BMP180;9234;49.344;11.120;2023-04-29T11:29:56;97406.00;;;19.30
18219;BMP180;9234;49.344;11.120;2023-04-29T11:32:27;97414.00;;;19.00
18219;BMP180;9234;49.344;11.120;2023-04-29T11:35:07;97419.00;;;18.70
18219;BMP180;9234;49.344;11.120;2023-04-29T11:37:36;97411.00;;;18.50
18219;BMP180;9234;49.344;11.120;2023-04-29T11:40:06;97410.00;;;18.20
18219;BMP180;9234;49.344;11.120;2023-04-29T11:42:35;97419.00;;;18.10
18219;BMP180;9234;49.344;11.120;2023-04-29T11:45:06;97414.00;;;18.00
18219;BMP180;9234;49.344;11.120;2023-04-29T11:47:34;97415.00;;;18.00
18219;BMP180;9234;49.344;11.120;2023-04-29T11:50:04;97431.00;;;18.00
18219;BMP180;9234;49.344;11.120;2023-04-29T11:52:36;97427.00;;;18.10
18219;BMP180;9234;49.344;11.120;2023-04-29T11:55:07;97430.00;;;18.10
18219;BMP180;9234;49.344;11.120;2023-04-29T11:57:37;97420.00;;;18.10
18219;BMP180;9234;49.344;11.120;2023-04-29T12:00:10;97430.00;;;18.00
18219;BMP180;9234;49.344;11.120;2023-04-29T12:02:44;97433.00;;;18.00
18219;BMP180;9234;49.344;11.120;2023-04-29T12:05:14;97429.00;;;17.90
18219;BMP180;9234;49.344;11.120;2023-04-29T12:07:43;97427.00;;;17.80
18219;BMP180;9234;49.344;11.120;2023-04-29T12:10:11;97416.00;;;17.80
18219;BMP180;9234;49.344;11.120;2023-04-29T12:12:40;97417.00;;;17.90
18219;BMP180;9234;49.344;11.120;2023-04-29T12:15:12;97431.00;;;17.90
18219;BMP180;9234;49.344;11.120;2023-04-29T12:17:42;97430.00;;;18.10
18219;BMP180;9234;49.344;11.120;2023-04-29T12:20:13;97429.00;;;18.20
18219;BMP180;9234;49.344;11.120;2023-04-29T12:22:41;97425.00;;;18.30
18219;BMP180;9234;49.344;11.120;2023-04-29T12:25:10;97428.00;;;18.40
18219;BMP180;9234;49.344;11.120;2023-04-29T12:27:40;97427.00;;;18.50
18219;BMP180;9234;49.344;11.120;2023-04-29T12:30:10;97424.00;;;18.50
18219;BMP180;9234;49.344;11.120;2023-04-29T12:32:39;97429.00;;;18.60
18219;BMP180;9234;49.344;11.120;2023-04-29T12:35:14;97416.00;;;18.60
18219;BMP180;9234;49.344;11.120;2023-04-29T12:37:47;97439.00;;;18.70
18219;BMP180;9234;49.344;11.120;2023-04-29T12:40:16;97422.00;;;18.70
18219;BMP180;9234;49.344;11.120;2023-04-29T12:42:46;97419.00;;;18.70
18219;BMP180;9234;49.344;11.120;2023-04-29T12:45:29;97427.00;;;18.60
18219;BMP180;9234;49.344;11.120;2023-04-29T12:47:58;97431.00;;;18.50
18219;BMP180;9234;49.344;11.120;2023-04-29T12:50:32;97438.00;;;18.50
18219;BMP180;9234;49.344;11.120;2023-04-29T12:53:01;97439.00;;;18.30
18219;BMP180;9234;49.344;11.120;2023-04-29T12:55:32;97439.00;;;18.20
18219;BMP180;9234;49.344;11.120;2023-04-29T12:58:01;97441.00;;;18.10
18219;BMP180;9234;49.344;11.120;2023-04-29T13:00:31;97436.00;;;18.10
18219;BMP180;9234;49.344;11.120;2023-04-29T13:03:01;97433.00;;;18.10
18219;BMP180;9234;49.344;11.120;2023-04-29T13:05:30;97437.00;;;18.10
18219;BMP180;9234;49.344;11.120;2023-04-29T13:07:58;97441.00;;;18.20
18219;BMP180;9234;49.344;11.120;2023-04-29T13:10:27;97443.00;;;18.20
18219;BMP180;9234;49.344;11.120;2023-04-29T13:12:55;97446.00;;;18.20
18219;BMP180;9234;49.344;11.120;2023-04-29T13:15:23;97439.00;;;18.10
18219;BMP180;9234;49.344;11.120;2023-04-29T13:17:53;97440.00;;;18.00
18219;BMP180;9234;49.344;11.120;2023-04-29T13:20:22;97441.00;;;18.00
18219;BMP180;9234;49.344;11.120;2023-04-29T13:22:50;97444.00;;;18.10
18219;BMP180;9234;49.344;11.120;2023-04-29T13:25:18;97447.00;;;18.10
18219;BMP180;9234;49.344;11.120;2023-04-29T13:27:47;97445.00;;;18.20
18219;BMP180;9234;49.344;11.120;2023-04-29T13:30:15;97442.00;;;18.20
18219;BMP180;9234;49.344;11.120;2023-04-29T13:32:43;97443.00;;;18.30
18219;BMP180;9234;49.344;11.120;2023-04-29T13:35:22;97450.00;;;18.40
18219;BMP180;9234;49.344;11.120;2023-04-29T13:37:50;97442.00;;;18.50
18219;BMP180;9234;49.344;11.120;2023-04-29T13:40:19;97453.00;;;18.60
18219;BMP180;9234;49.344;11.120;2023-04-29T13:42:47;97440.00;;;18.60
18219;BMP180;9234;49.344;11.120;2023-04-29T13:45:25;97458.00;;;18.50
18219;BMP180;9234;49.344;11.120;2023-04-29T13:47:55;97446.00;;;18.50
18219;BMP180;9234;49.344;11.120;2023-04-29T13:50:43;97441.00;;;18.50
18219;BMP180;9234;49.344;11.120;2023-04-29T13:53:14;97452.00;;;18.60
18219;BMP180;9234;49.344;11.120;2023-04-29T13:55:46;97448.00;;;18.70
18219;BMP180;9234;49.344;11.120;2023-04-29T13:58:17;97444.00;;;18.90
18219;BMP180;9234;49.344;11.120;2023-04-29T14:00:48;97445.00;;;19.10
18219;BMP180;9234;49.344;11.120;2023-04-29T14:03:19;97441.00;;;19.20
18219;BMP180;9234;49.344;11.120;2023-04-29T14:05:49;97449.00;;;19.40
18219;BMP180;9234;49.344;11.120;2023-04-29T14:08:18;97437.00;;;19.50
18219;BMP180;9234;49.344;11.120;2023-04-29T14:10:46;97445.00;;;19.60
18219;BMP180;9234;49.344;11.120;2023-04-29T14:13:14;97441.00;;;19.60
18219;BMP180;9234;49.344;11.120;2023-04-29T14:15:43;97450.00;;;19.60
18219;BMP180;9234;49.344;11.120;2023-04-29T14:18:11;97457.00;;;19.40
18219;BMP180;9234;49.344;11.120;2023-04-29T14:20:40;97458.00;;;19.30
18219;BMP180;9234;49.344;11.120;2023-04-29T14:23:09;97460.00;;;19.20
18219;BMP180;9234;49.344;11.120;2023-04-29T14:25:37;97456.00;;;19.10
18219;BMP180;9234;49.344;11.120;2023-04-29T14:28:06;97460.00;;;19.00
18219;BMP180;9234;49.344;11.120;2023-04-29T14:30:34;97459.00;;;19.00
18219;BMP180;9234;49.344;11.120;2023-04-29T14:33:02;97460.00;;;19.00